createdAt,value
2023-01-28T10:56:26.849Z,98930.00
2023-01-28T10:59:26.396Z,98937.00
2023-01-28T11:02:26.904Z,98934.00
2023-01-28T11:05:06.674Z,98926.00
2023-01-28T11:07:34.286Z,98933.00
2023-01-28T11:10:02.171Z,98923.00
2023-01-28T11:12:31.455Z,98913.00
2023-01-28T11:15:06.302Z,98916.00
2023-01-28T11:17:38.825Z,98919.00
2023-01-28T11:20:41.348Z,98917.00
2023-01-28T11:23:35.856Z,98917.00
2023-01-28T11:26:27.211Z,98937.00
2023-01-28T11:28:55.267Z,98931.00
2023-01-28T11:31:24.453Z,98933.00
2023-01-28T11:34:02.687Z,98926.00
2023-01-28T11:36:35.015Z,98931.00
2023-01-28T11:39:28.652Z,98933.00
2023-01-28T11:42:18.338Z,98932.00
2023-01-28T11:44:48.364Z,98932.00
2023-01-28T11:48:14.105Z,98926.00
2023-01-28T11:51:06.204Z,98924.00
2023-01-28T11:54:34.040Z,98926.00
2023-01-28T11:57:58.605Z,98925.00
2023-01-28T12:01:02.628Z,98921.00
2023-01-28T12:04:53.239Z,98923.00
2023-01-28T12:07:58.219Z,98919.00
2023-01-28T12:11:44.216Z,98920.00
2023-01-28T12:15:25.761Z,98921.00
2023-01-28T12:18:35.664Z,98920.00
2023-01-28T12:21:56.538Z,98926.00
2023-01-28T12:25:36.466Z,98918.00
2023-01-28T12:28:24.368Z,98928.00
2023-01-28T12:32:02.318Z,98929.00
2023-01-28T12:34:59.146Z,98922.00
2023-01-28T12:38:38.155Z,98925.00
2023-01-28T12:41:20.525Z,98925.00
2023-01-28T12:44:10.197Z,98928.00
2023-01-28T12:47:04.185Z,98919.00
2023-01-28T12:50:31.587Z,98932.00
2023-01-28T12:53:48.380Z,98925.00
2023-01-28T12:56:32.056Z,98925.00
2023-01-28T12:59:34.993Z,98921.00
2023-01-28T13:02:26.009Z,98912.00
2023-01-28T13:05:25.029Z,98915.00
2023-01-28T13:08:28.947Z,98918.00
2023-01-28T13:11:00.767Z,98910.00
2023-01-28T13:13:44.699Z,98911.00
2023-01-28T13:16:13.570Z,98924.00
2023-01-28T13:18:40.631Z,98934.00
2023-01-28T13:21:23.682Z,98929.00
2023-01-28T13:24:14.500Z,98937.00
2023-01-28T13:26:57.162Z,98930.00
2023-01-28T13:29:34.478Z,98933.00
2023-01-28T13:32:27.320Z,98933.00
2023-01-28T13:35:07.770Z,98941.00
2023-01-28T13:37:47.079Z,98938.00
2023-01-28T13:40:14.137Z,98944.00
2023-01-28T13:42:42.236Z,98941.00
2023-01-28T13:45:15.715Z,98948.00
2023-01-28T13:48:27.358Z,98949.00
2023-01-28T13:50:55.878Z,98946.00
2023-01-28T13:53:56.607Z,98947.00
2023-01-28T13:56:32.060Z,98946.00
2023-01-28T13:59:41.117Z,98951.00
2023-01-28T14:03:08.010Z,98944.00
2023-01-28T14:06:22.883Z,98946.00
2023-01-28T14:09:32.801Z,98957.00
2023-01-28T14:12:52.904Z,98953.00
2023-01-28T14:16:30.913Z,98948.00
2023-01-28T14:19:02.366Z,98960.00
2023-01-28T14:21:35.840Z,98962.00
2023-01-28T14:24:04.132Z,98966.00
2023-01-28T14:27:06.627Z,98968.00
2023-01-28T14:30:45.428Z,98958.00
2023-01-28T14:33:13.478Z,98964.00
2023-01-28T14:35:48.514Z,98970.00
2023-01-28T14:38:22.511Z,98981.00
2023-01-28T14:40:54.567Z,98977.00
2023-01-28T14:43:27.074Z,98972.00
2023-01-28T14:46:55.665Z,98977.00
2023-01-28T14:50:25.870Z,98975.00
2023-01-28T14:53:36.701Z,98978.00
2023-01-28T14:56:51.285Z,98982.00
2023-01-28T14:59:33.261Z,98979.00
2023-01-28T15:02:00.742Z,98983.00
2023-01-28T15:04:32.487Z,98988.00
2023-01-28T15:07:24.251Z,98989.00
2023-01-28T15:10:16.708Z,98994.00
2023-01-28T15:13:21.806Z,99002.00
2023-01-28T15:15:50.042Z,98994.00
2023-01-28T15:18:37.477Z,98997.00
